sensor_id;sensor_type;location;lat;lon;timestamp;P1;durP1;ratioP1;P2;durP2;ratioP2
66972;SDS011;53902;51.466;-2.586;2022-08-23T00:01:52;0.40;;;0.40;;
66972;SDS011;53902;51.466;-2.586;2022-08-23T00:04:20;0.40;;;0.40;;
66972;SDS011;53902;51.466;-2.586;2022-08-23T00:06:48;0.30;;;0.30;;
66972;SDS011;53902;51.466;-2.586;2022-08-23T00:09:19;0.30;;;0.30;;
66972;SDS011;53902;51.466;-2.586;2022-08-23T00:11:46;0.45;;;0.40;;
66972;SDS011;53902;51.466;-2.586;2022-08-23T00:14:17;0.40;;;0.40;;
66972;SDS011;53902;51.466;-2.586;2022-08-23T00:16:43;0.40;;;0.40;;
66972;SDS011;53902;51.466;-2.586;2022-08-23T00:19:10;0.32;;;0.30;;
66972;SDS011;53902;51.466;-2.586;2022-08-23T00:21:40;0.30;;;0.30;;
66972;SDS011;53902;51.466;-2.586;2022-08-23T00:24:06;0.40;;;0.40;;
66972;SDS011;53902;51.466;-2.586;2022-08-23T00:29:38;0.32;;;0.32;;
66972;SDS011;53902;51.466;-2.586;2022-08-23T00:32:06;0.30;;;0.30;;
66972;SDS011;53902;51.466;-2.586;2022-08-23T00:34:34;0.60;;;0.60;;
66972;SDS011;53902;51.466;-2.586;2022-08-23T00:37:00;0.68;;;0.40;;
66972;SDS011;53902;51.466;-2.586;2022-08-23T00:39:27;0.40;;;0.40;;
66972;SDS011;53902;51.466;-2.586;2022-08-23T00:41:54;1.90;;;1.03;;
66972;SDS011;53902;51.466;-2.586;2022-08-23T00:44:31;0.50;;;0.50;;
66972;SDS011;53902;51.466;-2.586;2022-08-23T00:47:18;1.05;;;0.70;;
66972;SDS011;53902;51.466;-2.586;2022-08-23T00:50:15;1.50;;;0.60;;
66972;SDS011;53902;51.466;-2.586;2022-08-23T00:53:22;0.82;;;0.82;;
66972;SDS011;53902;51.466;-2.586;2022-08-23T00:55:51;2.08;;;0.90;;
66972;SDS011;53902;51.466;-2.586;2022-08-23T00:58:20;1.20;;;1.00;;
66972;SDS011;53902;51.466;-2.586;2022-08-23T01:00:49;3.33;;;1.13;;
66972;SDS011;53902;51.466;-2.586;2022-08-23T01:03:17;1.13;;;0.90;;
66972;SDS011;53902;51.466;-2.586;2022-08-23T01:05:49;2.78;;;0.93;;
66972;SDS011;53902;51.466;-2.586;2022-08-23T01:08:20;1.85;;;0.95;;
66972;SDS011;53902;51.466;-2.586;2022-08-23T01:10:48;1.05;;;0.90;;
66972;SDS011;53902;51.466;-2.586;2022-08-23T01:13:23;2.17;;;1.08;;
66972;SDS011;53902;51.466;-2.586;2022-08-23T01:15:59;1.35;;;1.05;;
66972;SDS011;53902;51.466;-2.586;2022-08-23T01:18:28;1.08;;;1.00;;
66972;SDS011;53902;51.466;-2.586;2022-08-23T01:21:08;5.15;;;1.10;;
66972;SDS011;53902;51.466;-2.586;2022-08-23T01:23:44;2.83;;;1.55;;
66972;SDS011;53902;51.466;-2.586;2022-08-23T01:26:13;2.10;;;1.17;;
66972;SDS011;53902;51.466;-2.586;2022-08-23T01:28:39;1.10;;;1.00;;
66972;SDS011;53902;51.466;-2.586;2022-08-23T01:31:05;2.67;;;1.20;;
66972;SDS011;53902;51.466;-2.586;2022-08-23T01:33:31;1.90;;;1.45;;
66972;SDS011;53902;51.466;-2.586;2022-08-23T01:35:57;1.50;;;1.07;;
66972;SDS011;53902;51.466;-2.586;2022-08-23T01:38:26;1.75;;;1.15;;
66972;SDS011;53902;51.466;-2.586;2022-08-23T01:40:51;1.52;;;1.17;;
66972;SDS011;53902;51.466;-2.586;2022-08-23T01:43:20;2.28;;;1.15;;
66972;SDS011;53902;51.466;-2.586;2022-08-23T01:45:46;1.63;;;1.13;;
66972;SDS011;53902;51.466;-2.586;2022-08-23T01:48:15;4.25;;;1.25;;
66972;SDS011;53902;51.466;-2.586;2022-08-23T01:50:42;0.90;;;0.90;;
66972;SDS011;53902;51.466;-2.586;2022-08-23T01:53:08;1.80;;;1.10;;
66972;SDS011;53902;51.466;-2.586;2022-08-23T01:55:33;3.27;;;1.03;;
66972;SDS011;53902;51.466;-2.586;2022-08-23T01:58:02;2.42;;;1.17;;
66972;SDS011;53902;51.466;-2.586;2022-08-23T02:00:31;2.10;;;1.30;;
66972;SDS011;53902;51.466;-2.586;2022-08-23T02:02:59;1.52;;;1.33;;
66972;SDS011;53902;51.466;-2.586;2022-08-23T02:05:28;3.90;;;1.35;;
66972;SDS011;53902;51.466;-2.586;2022-08-23T02:07:59;1.17;;;0.90;;
66972;SDS011;53902;51.466;-2.586;2022-08-23T02:10:47;4.05;;;1.15;;
66972;SDS011;53902;51.466;-2.586;2022-08-23T02:13:16;2.75;;;1.10;;
66972;SDS011;53902;51.466;-2.586;2022-08-23T02:15:42;2.33;;;0.90;;
66972;SDS011;53902;51.466;-2.586;2022-08-23T02:18:09;0.93;;;0.90;;
66972;SDS011;53902;51.466;-2.586;2022-08-23T02:20:36;1.80;;;1.20;;
66972;SDS011;53902;51.466;-2.586;2022-08-23T02:23:04;2.28;;;1.20;;
66972;SDS011;53902;51.466;-2.586;2022-08-23T02:25:32;1.27;;;0.95;;
66972;SDS011;53902;51.466;-2.586;2022-08-23T02:27:58;1.57;;;1.00;;
66972;SDS011;53902;51.466;-2.586;2022-08-23T02:30:23;1.73;;;1.17;;
66972;SDS011;53902;51.466;-2.586;2022-08-23T02:32:49;2.10;;;1.20;;
66972;SDS011;53902;51.466;-2.586;2022-08-23T02:35:15;2.27;;;1.27;;
66972;SDS011;53902;51.466;-2.586;2022-08-23T02:37:40;3.07;;;1.13;;
66972;SDS011;53902;51.466;-2.586;2022-08-23T02:40:06;1.63;;;1.07;;
66972;SDS011;53902;51.466;-2.586;2022-08-23T02:42:32;1.97;;;1.03;;
66972;SDS011;53902;51.466;-2.586;2022-08-23T02:44:57;0.90;;;0.90;;
66972;SDS011;53902;51.466;-2.586;2022-08-23T02:47:23;1.17;;;1.00;;
66972;SDS011;53902;51.466;-2.586;2022-08-23T02:49:51;2.70;;;1.65;;
66972;SDS011;53902;51.466;-2.586;2022-08-23T02:52:17;0.98;;;0.90;;
66972;SDS011;53902;51.466;-2.586;2022-08-23T02:54:43;1.60;;;0.93;;
66972;SDS011;53902;51.466;-2.586;2022-08-23T02:57:08;1.23;;;1.13;;
66972;SDS011;53902;51.466;-2.586;2022-08-23T02:59:36;1.57;;;1.07;;
66972;SDS011;53902;51.466;-2.586;2022-08-23T03:02:02;1.10;;;1.00;;
66972;SDS011;53902;51.466;-2.586;2022-08-23T03:04:27;1.00;;;1.00;;
66972;SDS011;53902;51.466;-2.586;2022-08-23T03:06:53;1.90;;;1.73;;
66972;SDS011;53902;51.466;-2.586;2022-08-23T03:09:19;0.90;;;0.90;;
66972;SDS011;53902;51.466;-2.586;2022-08-23T03:11:45;0.90;;;0.90;;
66972;SDS011;53902;51.466;-2.586;2022-08-23T03:14:12;1.17;;;0.90;;
66972;SDS011;53902;51.466;-2.586;2022-08-23T03:16:40;3.80;;;0.80;;
66972;SDS011;53902;51.466;-2.586;2022-08-23T03:19:06;1.60;;;0.90;;
66972;SDS011;53902;51.466;-2.586;2022-08-23T03:21:34;1.48;;;1.38;;
66972;SDS011;53902;51.466;-2.586;2022-08-23T03:23:59;2.13;;;1.20;;
66972;SDS011;53902;51.466;-2.586;2022-08-23T03:26:25;1.80;;;0.90;;
66972;SDS011;53902;51.466;-2.586;2022-08-23T03:28:50;2.07;;;1.10;;
66972;SDS011;53902;51.466;-2.586;2022-08-23T03:31:16;1.47;;;1.10;;
66972;SDS011;53902;51.466;-2.586;2022-08-23T03:33:41;3.27;;;1.00;;
66972;SDS011;53902;51.466;-2.586;2022-08-23T03:36:09;3.20;;;1.33;;
66972;SDS011;53902;51.466;-2.586;2022-08-23T03:38:38;1.77;;;1.15;;
66972;SDS011;53902;51.466;-2.586;2022-08-23T03:41:05;1.23;;;1.20;;
66972;SDS011;53902;51.466;-2.586;2022-08-23T03:43:30;0.95;;;0.90;;
66972;SDS011;53902;51.466;-2.586;2022-08-23T03:45:56;2.83;;;1.20;;
66972;SDS011;53902;51.466;-2.586;2022-08-23T03:48:24;2.37;;;1.33;;
66972;SDS011;53902;51.466;-2.586;2022-08-23T03:50:49;1.50;;;1.30;;
66972;SDS011;53902;51.466;-2.586;2022-08-23T03:53:15;1.50;;;1.40;;
66972;SDS011;53902;51.466;-2.586;2022-08-23T03:55:43;2.72;;;1.83;;
66972;SDS011;53902;51.466;-2.586;2022-08-23T03:58:09;1.30;;;1.20;;
66972;SDS011;53902;51.466;-2.586;2022-08-23T04:03:01;1.27;;;1.10;;
66972;SDS011;53902;51.466;-2.586;2022-08-23T04:05:29;1.23;;;1.13;;
66972;SDS011;53902;51.466;-2.586;2022-08-23T04:07:54;2.43;;;1.27;;
66972;SDS011;53902;51.466;-2.586;2022-08-23T04:10:20;3.47;;;1.50;;
66972;SDS011;53902;51.466;-2.586;2022-08-23T04:12:48;3.47;;;1.58;;
66972;SDS011;53902;51.466;-2.586;2022-08-23T04:15:14;1.80;;;1.30;;
66972;SDS011;53902;51.466;-2.586;2022-08-23T04:17:39;1.90;;;1.30;;
66972;SDS011;53902;51.466;-2.586;2022-08-23T04:20:05;2.27;;;1.23;;
66972;SDS011;53902;51.466;-2.586;2022-08-23T04:22:31;3.17;;;1.45;;
66972;SDS011;53902;51.466;-2.586;2022-08-23T04:24:58;3.40;;;1.40;;
66972;SDS011;53902;51.466;-2.586;2022-08-23T04:29:49;1.50;;;1.30;;
66972;SDS011;53902;51.466;-2.586;2022-08-23T04:32:15;1.80;;;1.40;;
66972;SDS011;53902;51.466;-2.586;2022-08-23T04:34:43;4.07;;;1.67;;
66972;SDS011;53902;51.466;-2.586;2022-08-23T04:37:08;2.22;;;1.60;;
66972;SDS011;53902;51.466;-2.586;2022-08-23T04:39:35;3.43;;;1.80;;
66972;SDS011;53902;51.466;-2.586;2022-08-23T04:42:20;3.58;;;2.00;;
66972;SDS011;53902;51.466;-2.586;2022-08-23T04:44:47;2.42;;;1.42;;
66972;SDS011;53902;51.466;-2.586;2022-08-23T04:47:13;2.05;;;1.40;;
66972;SDS011;53902;51.466;-2.586;2022-08-23T04:49:39;2.40;;;1.50;;
66972;SDS011;53902;51.466;-2.586;2022-08-23T04:52:04;1.77;;;1.23;;
66972;SDS011;53902;51.466;-2.586;2022-08-23T04:54:30;1.50;;;1.40;;
66972;SDS011;53902;51.466;-2.586;2022-08-23T04:56:55;1.53;;;1.43;;
66972;SDS011;53902;51.466;-2.586;2022-08-23T04:59:21;2.63;;;1.33;;
66972;SDS011;53902;51.466;-2.586;2022-08-23T05:01:46;2.13;;;1.47;;
66972;SDS011;53902;51.466;-2.586;2022-08-23T05:04:12;4.22;;;1.50;;
66972;SDS011;53902;51.466;-2.586;2022-08-23T05:06:39;1.35;;;1.23;;
66972;SDS011;53902;51.466;-2.586;2022-08-23T05:09:05;2.03;;;1.60;;
66972;SDS011;53902;51.466;-2.586;2022-08-23T05:11:30;2.23;;;1.57;;
66972;SDS011;53902;51.466;-2.586;2022-08-23T05:13:58;1.80;;;1.70;;
66972;SDS011;53902;51.466;-2.586;2022-08-23T05:16:24;2.45;;;1.45;;
66972;SDS011;53902;51.466;-2.586;2022-08-23T05:18:52;3.00;;;1.40;;
66972;SDS011;53902;51.466;-2.586;2022-08-23T05:21:19;2.47;;;1.50;;
66972;SDS011;53902;51.466;-2.586;2022-08-23T05:23:45;5.15;;;1.77;;
66972;SDS011;53902;51.466;-2.586;2022-08-23T05:26:11;3.00;;;1.63;;
66972;SDS011;53902;51.466;-2.586;2022-08-23T05:28:39;1.93;;;1.30;;
66972;SDS011;53902;51.466;-2.586;2022-08-23T05:31:08;3.88;;;1.48;;
66972;SDS011;53902;51.466;-2.586;2022-08-23T05:33:38;3.83;;;1.52;;
66972;SDS011;53902;51.466;-2.586;2022-08-23T05:36:05;2.88;;;1.52;;
66972;SDS011;53902;51.466;-2.586;2022-08-23T05:38:34;1.60;;;1.50;;
66972;SDS011;53902;51.466;-2.586;2022-08-23T05:41:01;1.40;;;1.30;;
66972;SDS011;53902;51.466;-2.586;2022-08-23T05:43:27;1.42;;;1.33;;
66972;SDS011;53902;51.466;-2.586;2022-08-23T05:48:36;1.95;;;1.30;;
66972;SDS011;53902;51.466;-2.586;2022-08-23T05:56:13;3.83;;;1.70;;
66972;SDS011;53902;51.466;-2.586;2022-08-23T06:01:23;1.40;;;1.30;;
66972;SDS011;53902;51.466;-2.586;2022-08-23T06:03:50;2.55;;;1.42;;
66972;SDS011;53902;51.466;-2.586;2022-08-23T06:06:18;1.42;;;1.33;;
66972;SDS011;53902;51.466;-2.586;2022-08-23T06:08:48;2.20;;;1.50;;
66972;SDS011;53902;51.466;-2.586;2022-08-23T06:11:14;4.37;;;1.47;;
66972;SDS011;53902;51.466;-2.586;2022-08-23T06:13:45;2.33;;;1.40;;
66972;SDS011;53902;51.466;-2.586;2022-08-23T06:16:17;2.03;;;1.30;;
66972;SDS011;53902;51.466;-2.586;2022-08-23T06:18:50;3.03;;;1.60;;
66972;SDS011;53902;51.466;-2.586;2022-08-23T06:21:17;1.88;;;1.30;;
66972;SDS011;53902;51.466;-2.586;2022-08-23T06:23:43;1.57;;;1.30;;
66972;SDS011;53902;51.466;-2.586;2022-08-23T06:28:49;1.90;;;1.48;;
66972;SDS011;53902;51.466;-2.586;2022-08-23T06:31:17;2.53;;;1.38;;
66972;SDS011;53902;51.466;-2.586;2022-08-23T06:34:05;3.88;;;1.50;;
66972;SDS011;53902;51.466;-2.586;2022-08-23T06:36:31;4.15;;;1.48;;
66972;SDS011;53902;51.466;-2.586;2022-08-23T06:38:57;1.77;;;1.20;;
66972;SDS011;53902;51.466;-2.586;2022-08-23T06:41:23;1.53;;;1.00;;
66972;SDS011;53902;51.466;-2.586;2022-08-23T06:43:49;2.80;;;1.30;;
66972;SDS011;53902;51.466;-2.586;2022-08-23T06:46:16;2.30;;;1.40;;
66972;SDS011;53902;51.466;-2.586;2022-08-23T06:48:43;1.45;;;1.35;;
66972;SDS011;53902;51.466;-2.586;2022-08-23T06:51:13;1.92;;;1.33;;
66972;SDS011;53902;51.466;-2.586;2022-08-23T06:53:40;3.47;;;1.20;;
66972;SDS011;53902;51.466;-2.586;2022-08-23T06:56:05;1.60;;;1.50;;
66972;SDS011;53902;51.466;-2.586;2022-08-23T06:58:32;1.20;;;1.10;;
66972;SDS011;53902;51.466;-2.586;2022-08-23T07:03:41;1.23;;;1.15;;
66972;SDS011;53902;51.466;-2.586;2022-08-23T07:06:07;1.40;;;1.30;;
66972;SDS011;53902;51.466;-2.586;2022-08-23T07:08:35;1.67;;;1.30;;
66972;SDS011;53902;51.466;-2.586;2022-08-23T07:11:00;2.93;;;1.57;;
66972;SDS011;53902;51.466;-2.586;2022-08-23T07:13:26;1.77;;;1.33;;
66972;SDS011;53902;51.466;-2.586;2022-08-23T07:15:55;1.93;;;1.10;;
66972;SDS011;53902;51.466;-2.586;2022-08-23T07:18:22;4.05;;;1.20;;
66972;SDS011;53902;51.466;-2.586;2022-08-23T07:20:50;1.30;;;1.20;;
66972;SDS011;53902;51.466;-2.586;2022-08-23T07:23:22;1.98;;;1.23;;
66972;SDS011;53902;51.466;-2.586;2022-08-23T07:25:49;1.63;;;1.20;;
66972;SDS011;53902;51.466;-2.586;2022-08-23T07:28:15;1.50;;;1.10;;
66972;SDS011;53902;51.466;-2.586;2022-08-23T07:30:40;2.73;;;1.40;;
66972;SDS011;53902;51.466;-2.586;2022-08-23T07:33:06;1.13;;;1.03;;
66972;SDS011;53902;51.466;-2.586;2022-08-23T07:35:34;1.58;;;1.20;;
66972;SDS011;53902;51.466;-2.586;2022-08-23T07:38:01;1.17;;;1.00;;
66972;SDS011;53902;51.466;-2.586;2022-08-23T07:40:27;4.63;;;1.00;;
66972;SDS011;53902;51.466;-2.586;2022-08-23T07:42:55;1.77;;;1.23;;
66972;SDS011;53902;51.466;-2.586;2022-08-23T07:45:21;1.20;;;1.10;;
66972;SDS011;53902;51.466;-2.586;2022-08-23T07:47:47;1.63;;;1.20;;
66972;SDS011;53902;51.466;-2.586;2022-08-23T07:50:12;1.10;;;1.00;;
66972;SDS011;53902;51.466;-2.586;2022-08-23T07:52:38;2.20;;;1.37;;
66972;SDS011;53902;51.466;-2.586;2022-08-23T07:55:03;1.77;;;1.37;;
66972;SDS011;53902;51.466;-2.586;2022-08-23T07:57:29;2.23;;;1.23;;
66972;SDS011;53902;51.466;-2.586;2022-08-23T07:59:55;1.37;;;1.27;;
66972;SDS011;53902;51.466;-2.586;2022-08-23T08:02:20;2.97;;;1.40;;
66972;SDS011;53902;51.466;-2.586;2022-08-23T08:04:48;2.20;;;1.40;;
66972;SDS011;53902;51.466;-2.586;2022-08-23T08:07:13;3.70;;;1.67;;
66972;SDS011;53902;51.466;-2.586;2022-08-23T08:09:39;1.90;;;1.43;;
66972;SDS011;53902;51.466;-2.586;2022-08-23T08:12:05;3.03;;;2.00;;
66972;SDS011;53902;51.466;-2.586;2022-08-23T08:14:30;2.07;;;1.70;;
66972;SDS011;53902;51.466;-2.586;2022-08-23T08:16:56;2.53;;;1.60;;
66972;SDS011;53902;51.466;-2.586;2022-08-23T08:19:22;3.95;;;1.50;;
66972;SDS011;53902;51.466;-2.586;2022-08-23T08:21:47;2.23;;;1.30;;
66972;SDS011;53902;51.466;-2.586;2022-08-23T08:24:15;2.03;;;1.20;;
66972;SDS011;53902;51.466;-2.586;2022-08-23T08:26:47;1.85;;;1.48;;
66972;SDS011;53902;51.466;-2.586;2022-08-23T08:29:19;3.13;;;1.30;;
66972;SDS011;53902;51.466;-2.586;2022-08-23T08:31:44;1.30;;;1.20;;
66972;SDS011;53902;51.466;-2.586;2022-08-23T08:34:15;1.70;;;1.30;;
66972;SDS011;53902;51.466;-2.586;2022-08-23T08:39:30;3.10;;;1.10;;
66972;SDS011;53902;51.466;-2.586;2022-08-23T08:47:40;0.82;;;0.80;;
66972;SDS011;53902;51.466;-2.586;2022-08-23T08:52:54;1.10;;;1.00;;
66972;SDS011;53902;51.466;-2.586;2022-08-23T08:55:33;1.17;;;0.80;;
66972;SDS011;53902;51.466;-2.586;2022-08-23T08:58:05;0.80;;;0.65;;
66972;SDS011;53902;51.466;-2.586;2022-08-23T09:02:58;0.60;;;0.60;;
66972;SDS011;53902;51.466;-2.586;2022-08-23T09:11:07;0.60;;;0.60;;
66972;SDS011;53902;51.466;-2.586;2022-08-23T09:13:47;0.68;;;0.68;;
66972;SDS011;53902;51.466;-2.586;2022-08-23T09:19:10;0.60;;;0.60;;
66972;SDS011;53902;51.466;-2.586;2022-08-23T09:24:26;0.60;;;0.60;;
66972;SDS011;53902;51.466;-2.586;2022-08-23T09:26:51;1.37;;;0.70;;
66972;SDS011;53902;51.466;-2.586;2022-08-23T09:31:47;0.57;;;0.57;;
66972;SDS011;53902;51.466;-2.586;2022-08-23T09:37:17;0.47;;;0.47;;
66972;SDS011;53902;51.466;-2.586;2022-08-23T09:39:53;0.88;;;0.65;;
66972;SDS011;53902;51.466;-2.586;2022-08-23T09:42:39;0.52;;;0.52;;
66972;SDS011;53902;51.466;-2.586;2022-08-23T09:45:25;0.57;;;0.57;;
66972;SDS011;53902;51.466;-2.586;2022-08-23T09:47:53;0.50;;;0.50;;
66972;SDS011;53902;51.466;-2.586;2022-08-23T09:53:38;0.52;;;0.52;;
66972;SDS011;53902;51.466;-2.586;2022-08-23T09:56:13;0.50;;;0.50;;
66972;SDS011;53902;51.466;-2.586;2022-08-23T09:58:42;0.50;;;0.50;;
66972;SDS011;53902;51.466;-2.586;2022-08-23T10:04:05;0.88;;;0.60;;
66972;SDS011;53902;51.466;-2.586;2022-08-23T10:06:30;0.60;;;0.60;;
66972;SDS011;53902;51.466;-2.586;2022-08-23T10:08:58;2.85;;;0.73;;
66972;SDS011;53902;51.466;-2.586;2022-08-23T10:11:42;0.57;;;0.57;;
66972;SDS011;53902;51.466;-2.586;2022-08-23T10:14:12;0.50;;;0.50;;
66972;SDS011;53902;51.466;-2.586;2022-08-23T10:16:40;0.73;;;0.70;;
66972;SDS011;53902;51.466;-2.586;2022-08-23T10:24:37;0.60;;;0.60;;
66972;SDS011;53902;51.466;-2.586;2022-08-23T10:30:14;0.70;;;0.70;;
66972;SDS011;53902;51.466;-2.586;2022-08-23T10:35:51;0.60;;;0.60;;
66972;SDS011;53902;51.466;-2.586;2022-08-23T10:46:40;1.85;;;0.80;;
66972;SDS011;53902;51.466;-2.586;2022-08-23T10:49:18;1.10;;;0.90;;
66972;SDS011;53902;51.466;-2.586;2022-08-23T10:51:45;1.90;;;1.00;;
66972;SDS011;53902;51.466;-2.586;2022-08-23T10:54:17;2.13;;;1.58;;
66972;SDS011;53902;51.466;-2.586;2022-08-23T10:56:47;1.17;;;0.80;;
66972;SDS011;53902;51.466;-2.586;2022-08-23T10:59:21;4.32;;;0.90;;
66972;SDS011;53902;51.466;-2.586;2022-08-23T11:06:56;0.52;;;0.52;;
66972;SDS011;53902;51.466;-2.586;2022-08-23T11:11:50;0.60;;;0.53;;
66972;SDS011;53902;51.466;-2.586;2022-08-23T11:17:40;0.70;;;0.70;;
66972;SDS011;53902;51.466;-2.586;2022-08-23T11:19:57;0.70;;;0.70;;
66972;SDS011;53902;51.466;-2.586;2022-08-23T11:27:52;0.75;;;0.75;;
66972;SDS011;53902;51.466;-2.586;2022-08-23T11:32:56;1.35;;;0.90;;
66972;SDS011;53902;51.466;-2.586;2022-08-23T11:35:42;1.77;;;1.00;;
66972;SDS011;53902;51.466;-2.586;2022-08-23T11:38:10;1.50;;;1.30;;
66972;SDS011;53902;51.466;-2.586;2022-08-23T11:43:23;0.60;;;0.60;;
66972;SDS011;53902;51.466;-2.586;2022-08-23T11:46:12;0.68;;;0.60;;
66972;SDS011;53902;51.466;-2.586;2022-08-23T11:51:39;0.90;;;0.70;;
66972;SDS011;53902;51.466;-2.586;2022-08-23T12:01:53;1.00;;;0.85;;
66972;SDS011;53902;51.466;-2.586;2022-08-23T12:06:55;0.70;;;0.70;;
66972;SDS011;53902;51.466;-2.586;2022-08-23T12:19:50;0.98;;;0.90;;
66972;SDS011;53902;51.466;-2.586;2022-08-23T12:22:22;0.73;;;0.70;;
66972;SDS011;53902;51.466;-2.586;2022-08-23T12:25:00;0.80;;;0.80;;
66972;SDS011;53902;51.466;-2.586;2022-08-23T12:41:27;1.05;;;0.75;;
66972;SDS011;53902;51.466;-2.586;2022-08-23T12:44:08;2.25;;;0.85;;
66972;SDS011;53902;51.466;-2.586;2022-08-23T12:46:35;1.00;;;0.90;;
66972;SDS011;53902;51.466;-2.586;2022-08-23T12:49:09;1.42;;;1.17;;
66972;SDS011;53902;51.466;-2.586;2022-08-23T12:51:52;0.93;;;0.88;;
66972;SDS011;53902;51.466;-2.586;2022-08-23T12:54:21;1.10;;;1.00;;
66972;SDS011;53902;51.466;-2.586;2022-08-23T12:56:49;2.03;;;0.90;;
66972;SDS011;53902;51.466;-2.586;2022-08-23T13:02:13;0.82;;;0.60;;
66972;SDS011;53902;51.466;-2.586;2022-08-23T13:04:57;1.05;;;0.70;;
66972;SDS011;53902;51.466;-2.586;2022-08-23T13:07:28;0.60;;;0.60;;
66972;SDS011;53902;51.466;-2.586;2022-08-23T13:09:54;0.60;;;0.60;;
66972;SDS011;53902;51.466;-2.586;2022-08-23T13:12:23;0.70;;;0.70;;
66972;SDS011;53902;51.466;-2.586;2022-08-23T13:14:50;0.70;;;0.70;;
66972;SDS011;53902;51.466;-2.586;2022-08-23T13:20:16;1.63;;;0.98;;
66972;SDS011;53902;51.466;-2.586;2022-08-23T13:23:07;1.40;;;0.70;;
66972;SDS011;53902;51.466;-2.586;2022-08-23T13:25:39;2.75;;;0.80;;
66972;SDS011;53902;51.466;-2.586;2022-08-23T13:28:27;1.55;;;0.60;;
66972;SDS011;53902;51.466;-2.586;2022-08-23T13:31:01;0.70;;;0.70;;
66972;SDS011;53902;51.466;-2.586;2022-08-23T13:33:34;1.75;;;0.90;;
66972;SDS011;53902;51.466;-2.586;2022-08-23T13:36:12;1.25;;;0.90;;
66972;SDS011;53902;51.466;-2.586;2022-08-23T13:38:41;1.95;;;1.00;;
66972;SDS011;53902;51.466;-2.586;2022-08-23T13:41:09;0.60;;;0.60;;
66972;SDS011;53902;51.466;-2.586;2022-08-23T13:43:38;1.48;;;0.90;;
66972;SDS011;53902;51.466;-2.586;2022-08-23T13:46:30;0.90;;;0.90;;
66972;SDS011;53902;51.466;-2.586;2022-08-23T13:51:31;1.55;;;1.00;;
66972;SDS011;53902;51.466;-2.586;2022-08-23T13:54:00;2.08;;;1.10;;
66972;SDS011;53902;51.466;-2.586;2022-08-23T13:56:28;1.13;;;1.10;;
66972;SDS011;53902;51.466;-2.586;2022-08-23T13:58:56;1.60;;;0.90;;
66972;SDS011;53902;51.466;-2.586;2022-08-23T14:01:33;3.42;;;0.90;;
66972;SDS011;53902;51.466;-2.586;2022-08-23T14:04:01;0.80;;;0.80;;
66972;SDS011;53902;51.466;-2.586;2022-08-23T14:06:27;0.90;;;0.80;;
66972;SDS011;53902;51.466;-2.586;2022-08-23T14:08:53;2.00;;;0.80;;
66972;SDS011;53902;51.466;-2.586;2022-08-23T14:11:18;1.10;;;0.97;;
66972;SDS011;53902;51.466;-2.586;2022-08-23T14:13:46;0.73;;;0.73;;
66972;SDS011;53902;51.466;-2.586;2022-08-23T14:16:15;1.50;;;0.90;;
66972;SDS011;53902;51.466;-2.586;2022-08-23T14:18:52;0.98;;;0.85;;
66972;SDS011;53902;51.466;-2.586;2022-08-23T14:21:17;1.13;;;1.03;;
66972;SDS011;53902;51.466;-2.586;2022-08-23T14:23:43;1.17;;;0.60;;
66972;SDS011;53902;51.466;-2.586;2022-08-23T14:26:08;1.07;;;0.90;;
66972;SDS011;53902;51.466;-2.586;2022-08-23T14:28:39;1.05;;;0.90;;
66972;SDS011;53902;51.466;-2.586;2022-08-23T14:31:05;2.20;;;0.83;;
66972;SDS011;53902;51.466;-2.586;2022-08-23T14:33:30;1.13;;;0.80;;
66972;SDS011;53902;51.466;-2.586;2022-08-23T14:35:56;2.70;;;0.90;;
66972;SDS011;53902;51.466;-2.586;2022-08-23T14:38:21;0.80;;;0.80;;
66972;SDS011;53902;51.466;-2.586;2022-08-23T14:40:51;0.70;;;0.70;;
66972;SDS011;53902;51.466;-2.586;2022-08-23T14:43:19;0.80;;;0.80;;
66972;SDS011;53902;51.466;-2.586;2022-08-23T14:45:45;1.10;;;0.70;;
66972;SDS011;53902;51.466;-2.586;2022-08-23T14:48:11;1.07;;;0.97;;
66972;SDS011;53902;51.466;-2.586;2022-08-23T14:50:39;2.25;;;0.90;;
66972;SDS011;53902;51.466;-2.586;2022-08-23T14:53:05;0.88;;;0.82;;
66972;SDS011;53902;51.466;-2.586;2022-08-23T14:55:31;3.10;;;1.60;;
66972;SDS011;53902;51.466;-2.586;2022-08-23T14:57:59;1.10;;;0.90;;
66972;SDS011;53902;51.466;-2.586;2022-08-23T15:00:25;1.10;;;1.00;;
66972;SDS011;53902;51.466;-2.586;2022-08-23T15:02:53;1.85;;;0.90;;
66972;SDS011;53902;51.466;-2.586;2022-08-23T15:05:18;0.93;;;0.90;;
66972;SDS011;53902;51.466;-2.586;2022-08-23T15:07:44;0.90;;;0.90;;
66972;SDS011;53902;51.466;-2.586;2022-08-23T15:10:12;1.50;;;1.00;;
66972;SDS011;53902;51.466;-2.586;2022-08-23T15:12:38;1.55;;;1.13;;
66972;SDS011;53902;51.466;-2.586;2022-08-23T15:15:05;0.90;;;0.90;;
66972;SDS011;53902;51.466;-2.586;2022-08-23T15:17:36;0.98;;;0.90;;
66972;SDS011;53902;51.466;-2.586;2022-08-23T15:20:05;0.70;;;0.70;;
66972;SDS011;53902;51.466;-2.586;2022-08-23T15:22:31;1.45;;;1.00;;
66972;SDS011;53902;51.466;-2.586;2022-08-23T15:24:56;2.00;;;1.00;;
66972;SDS011;53902;51.466;-2.586;2022-08-23T15:30:18;1.17;;;1.00;;
66972;SDS011;53902;51.466;-2.586;2022-08-23T15:33:04;2.05;;;0.90;;
66972;SDS011;53902;51.466;-2.586;2022-08-23T15:35:33;2.10;;;1.20;;
66972;SDS011;53902;51.466;-2.586;2022-08-23T15:38:02;2.08;;;1.10;;
66972;SDS011;53902;51.466;-2.586;2022-08-23T15:40:28;2.10;;;1.00;;
66972;SDS011;53902;51.466;-2.586;2022-08-23T15:42:53;1.43;;;0.90;;
66972;SDS011;53902;51.466;-2.586;2022-08-23T15:45:19;1.33;;;1.10;;
66972;SDS011;53902;51.466;-2.586;2022-08-23T15:47:52;1.13;;;1.00;;
66972;SDS011;53902;51.466;-2.586;2022-08-23T15:50:20;1.70;;;0.85;;
66972;SDS011;53902;51.466;-2.586;2022-08-23T15:52:46;1.50;;;1.00;;
66972;SDS011;53902;51.466;-2.586;2022-08-23T15:55:12;1.13;;;1.00;;
66972;SDS011;53902;51.466;-2.586;2022-08-23T15:57:40;1.10;;;0.93;;
66972;SDS011;53902;51.466;-2.586;2022-08-23T16:00:08;0.90;;;0.90;;
66972;SDS011;53902;51.466;-2.586;2022-08-23T16:02:37;0.98;;;0.98;;
66972;SDS011;53902;51.466;-2.586;2022-08-23T16:05:03;1.00;;;0.90;;
66972;SDS011;53902;51.466;-2.586;2022-08-23T16:07:29;0.82;;;0.82;;
66972;SDS011;53902;51.466;-2.586;2022-08-23T16:10:01;1.02;;;0.93;;
66972;SDS011;53902;51.466;-2.586;2022-08-23T16:17:25;1.03;;;1.00;;
66972;SDS011;53902;51.466;-2.586;2022-08-23T16:19:53;0.90;;;0.90;;
66972;SDS011;53902;51.466;-2.586;2022-08-23T16:22:18;2.30;;;0.90;;
66972;SDS011;53902;51.466;-2.586;2022-08-23T16:24:51;1.40;;;1.30;;
66972;SDS011;53902;51.466;-2.586;2022-08-23T16:27:18;1.92;;;1.30;;
66972;SDS011;53902;51.466;-2.586;2022-08-23T16:29:51;1.77;;;1.17;;
66972;SDS011;53902;51.466;-2.586;2022-08-23T16:32:16;1.23;;;1.10;;
66972;SDS011;53902;51.466;-2.586;2022-08-23T16:34:42;2.50;;;0.93;;
66972;SDS011;53902;51.466;-2.586;2022-08-23T16:37:15;1.07;;;0.90;;
66972;SDS011;53902;51.466;-2.586;2022-08-23T16:39:50;1.23;;;1.00;;
66972;SDS011;53902;51.466;-2.586;2022-08-23T16:42:15;1.23;;;1.00;;
66972;SDS011;53902;51.466;-2.586;2022-08-23T16:44:42;1.13;;;1.00;;
66972;SDS011;53902;51.466;-2.586;2022-08-23T16:47:07;2.57;;;1.23;;
66972;SDS011;53902;51.466;-2.586;2022-08-23T16:49:36;1.10;;;1.00;;
66972;SDS011;53902;51.466;-2.586;2022-08-23T16:52:01;1.50;;;1.08;;
66972;SDS011;53902;51.466;-2.586;2022-08-23T16:54:29;2.72;;;1.42;;
66972;SDS011;53902;51.466;-2.586;2022-08-23T16:56:55;2.40;;;1.70;;
66972;SDS011;53902;51.466;-2.586;2022-08-23T16:59:20;1.17;;;0.93;;
66972;SDS011;53902;51.466;-2.586;2022-08-23T17:01:51;1.00;;;1.00;;
66972;SDS011;53902;51.466;-2.586;2022-08-23T17:04:21;2.40;;;0.90;;
66972;SDS011;53902;51.466;-2.586;2022-08-23T17:07:03;1.75;;;1.10;;
66972;SDS011;53902;51.466;-2.586;2022-08-23T17:09:28;1.77;;;1.30;;
66972;SDS011;53902;51.466;-2.586;2022-08-23T17:11:54;1.37;;;1.17;;
66972;SDS011;53902;51.466;-2.586;2022-08-23T17:14:22;2.38;;;1.65;;
66972;SDS011;53902;51.466;-2.586;2022-08-23T17:16:48;2.58;;;1.30;;
66972;SDS011;53902;51.466;-2.586;2022-08-23T17:19:13;3.67;;;1.40;;